createdAt,value
2023-04-23T00:01:08.803Z,66.66
2023-04-23T00:04:13.865Z,67.41
2023-04-23T00:07:20.555Z,68.55
2023-04-23T00:10:24.104Z,69.34
2023-04-23T00:13:27.578Z,68.41
2023-04-23T00:16:31.088Z,68.97
2023-04-23T00:19:34.330Z,69.32
2023-04-23T00:22:37.820Z,69.26
2023-04-23T00:25:40.865Z,69.16
2023-04-23T00:28:44.124Z,70.81
2023-04-23T00:31:47.746Z,69.50
2023-04-23T00:34:50.976Z,69.92
2023-04-23T00:37:53.926Z,69.88
2023-04-23T00:40:57.498Z,69.79
2023-04-23T00:44:00.764Z,69.50
2023-04-23T00:47:04.125Z,68.35
2023-04-23T00:50:08.288Z,68.24
2023-04-23T00:53:12.616Z,67.87
2023-04-23T00:56:18.001Z,68.84
2023-04-23T00:59:22.018Z,68.31
2023-04-23T01:02:28.127Z,67.69
2023-04-23T01:05:31.399Z,67.85
2023-04-23T01:08:36.456Z,67.94
2023-04-23T01:11:42.050Z,67.77
2023-04-23T01:14:46.174Z,67.58
2023-04-23T01:17:49.485Z,67.05
2023-04-23T01:20:52.708Z,67.62
2023-04-23T01:23:56.185Z,67.02
2023-04-23T01:26:59.144Z,67.87
2023-04-23T01:30:04.927Z,67.30
2023-04-23T01:33:09.200Z,67.57
2023-04-23T01:36:12.711Z,67.40
2023-04-23T01:39:16.101Z,67.47
2023-04-23T01:42:19.649Z,67.93
2023-04-23T01:45:23.091Z,67.74
2023-04-23T01:48:26.571Z,67.47
2023-04-23T01:51:30.600Z,67.34
2023-04-23T01:54:33.849Z,67.54
2023-04-23T01:57:37.280Z,67.19
2023-04-23T02:00:40.635Z,68.81
2023-04-23T02:03:45.228Z,68.22
2023-04-23T02:06:50.520Z,68.11
2023-04-23T02:09:53.769Z,68.04
2023-04-23T02:12:58.436Z,68.22
2023-04-23T02:16:01.828Z,68.28
2023-04-23T02:19:05.415Z,67.45
2023-04-23T02:22:09.388Z,68.67
2023-04-23T02:25:15.828Z,68.46
2023-04-23T02:28:18.978Z,68.13
2023-04-23T02:31:22.909Z,67.62
2023-04-23T02:34:26.293Z,68.83
2023-04-23T02:37:29.480Z,67.91
2023-04-23T02:40:32.517Z,68.20
2023-04-23T02:43:35.901Z,68.26
2023-04-23T02:46:38.831Z,67.89
2023-04-23T02:49:42.108Z,67.99
2023-04-23T02:52:45.456Z,68.25
2023-04-23T02:55:48.722Z,67.76
2023-04-23T02:58:51.881Z,68.26
2023-04-23T03:01:55.456Z,67.81
2023-04-23T03:04:58.777Z,67.72
2023-04-23T03:08:01.760Z,68.22
2023-04-23T03:11:05.272Z,68.34
2023-04-23T03:14:09.462Z,68.17
2023-04-23T03:17:12.679Z,67.96
2023-04-23T03:20:15.695Z,67.80
2023-04-23T03:23:19.344Z,68.89
2023-04-23T03:26:23.876Z,67.76
2023-04-23T03:29:30.811Z,68.16
2023-04-23T03:32:34.485Z,69.15
2023-04-23T03:35:37.742Z,69.19
2023-04-23T03:38:45.212Z,70.62
2023-04-23T03:41:49.673Z,70.99
2023-04-23T03:44:56.161Z,71.13
2023-04-23T03:47:59.057Z,71.31
2023-04-23T03:51:03.412Z,72.17
2023-04-23T03:54:19.664Z,71.99
2023-04-23T03:57:41.542Z,72.49
2023-04-23T04:00:56.148Z,73.02
2023-04-23T04:03:59.672Z,72.71
2023-04-23T04:07:03.187Z,73.38
2023-04-23T04:10:07.035Z,72.16
2023-04-23T04:13:10.069Z,73.36
2023-04-23T04:16:13.514Z,72.06
2023-04-23T04:19:16.764Z,71.46
2023-04-23T04:22:20.259Z,71.92
2023-04-23T04:25:24.326Z,71.29
2023-04-23T04:28:27.767Z,72.35
2023-04-23T04:31:31.394Z,72.25
2023-04-23T04:34:36.312Z,72.51
2023-04-23T04:37:39.281Z,72.68
2023-04-23T04:40:43.970Z,72.90
2023-04-23T04:43:48.488Z,71.78
2023-04-23T04:46:52.925Z,70.90
2023-04-23T04:49:57.833Z,69.81
2023-04-23T04:53:01.030Z,68.72
2023-04-23T04:56:04.043Z,66.92
2023-04-23T04:59:07.192Z,66.33
2023-04-23T05:02:10.526Z,64.34
2023-04-23T05:05:13.979Z,64.16
2023-04-23T05:08:17.602Z,65.21
2023-04-23T05:11:21.213Z,63.70
2023-04-23T05:14:26.802Z,62.84
2023-04-23T05:17:29.858Z,62.82
2023-04-23T05:20:33.033Z,61.92
2023-04-23T05:23:36.630Z,62.30
2023-04-23T05:26:39.631Z,62.48
2023-04-23T05:29:42.584Z,60.99
2023-04-23T05:32:45.809Z,59.26
2023-04-23T05:35:48.873Z,57.49
2023-04-23T05:38:52.783Z,56.59
2023-04-23T05:41:56.413Z,54.43
2023-04-23T05:44:59.420Z,56.30
2023-04-23T05:48:02.511Z,57.03
2023-04-23T05:51:05.592Z,58.61
2023-04-23T05:54:08.542Z,58.82
2023-04-23T05:57:12.360Z,58.74
2023-04-23T06:00:17.143Z,59.60
2023-04-23T06:03:20.587Z,60.38
2023-04-23T06:06:23.935Z,60.02
2023-04-23T06:09:26.964Z,61.30
2023-04-23T06:12:30.137Z,61.46
2023-04-23T06:15:33.309Z,61.00
2023-04-23T06:18:37.849Z,60.59
2023-04-23T06:21:41.266Z,59.35
2023-04-23T06:24:44.435Z,56.43
2023-04-23T06:27:47.635Z,54.21
2023-04-23T06:30:56.190Z,53.65
2023-04-23T06:33:59.643Z,54.44
2023-04-23T06:37:02.593Z,50.96
2023-04-23T06:40:07.209Z,51.50
2023-04-23T06:43:11.292Z,49.90
2023-04-23T06:46:37.295Z,47.72
2023-04-23T06:49:41.324Z,49.46
2023-04-23T06:52:45.372Z,47.83
2023-04-23T06:55:50.020Z,48.37
2023-04-23T06:58:53.172Z,47.34
2023-04-23T07:01:57.981Z,47.48
2023-04-23T07:05:01.382Z,46.08
2023-04-23T07:08:04.773Z,45.78
2023-04-23T07:11:08.197Z,41.98
2023-04-23T07:14:11.299Z,44.09
2023-04-23T07:17:14.190Z,40.89
2023-04-23T07:20:17.312Z,44.33
2023-04-23T07:23:20.589Z,43.81
2023-04-23T07:26:25.603Z,41.94
2023-04-23T07:29:28.751Z,41.98
2023-04-23T07:32:32.150Z,42.10
2023-04-23T07:35:35.675Z,44.95
2023-04-23T07:38:39.087Z,42.26
2023-04-23T07:41:42.911Z,45.17
2023-04-23T07:44:46.462Z,40.13
2023-04-23T07:47:50.847Z,38.36
2023-04-23T07:50:54.298Z,40.19
2023-04-23T07:53:58.414Z,36.71
2023-04-23T07:57:01.487Z,36.65
2023-04-23T08:00:09.432Z,37.57
2023-04-23T08:03:15.374Z,37.13
2023-04-23T08:06:18.832Z,36.35
2023-04-23T08:09:21.695Z,34.94
2023-04-23T08:12:24.541Z,34.58
2023-04-23T08:18:57.837Z,33.35
2023-04-23T08:22:07.891Z,30.70
2023-04-23T08:25:12.840Z,32.37
2023-04-23T08:28:16.439Z,33.57
2023-04-23T08:31:26.428Z,34.55
2023-04-23T08:34:31.819Z,35.25
2023-04-23T08:37:35.731Z,36.23
2023-04-23T08:40:41.516Z,37.35
2023-04-23T08:43:55.877Z,34.80
2023-04-23T08:47:04.944Z,34.89
2023-04-23T08:50:10.400Z,37.02
2023-04-23T08:53:19.908Z,37.56
2023-04-23T08:56:24.352Z,36.96
2023-04-23T08:59:30.813Z,39.77
2023-04-23T09:02:38.486Z,32.67
2023-04-23T09:05:41.908Z,36.88
2023-04-23T09:08:46.648Z,35.61
2023-04-23T09:11:52.803Z,33.13
2023-04-23T09:14:57.632Z,34.26
2023-04-23T09:18:01.867Z,33.20
2023-04-23T09:21:05.892Z,32.66
2023-04-23T09:24:12.926Z,32.66
2023-04-23T09:27:24.164Z,34.10
2023-04-23T09:30:27.802Z,35.19
2023-04-23T09:33:32.942Z,34.66
2023-04-23T09:36:37.750Z,31.93
2023-04-23T09:39:41.661Z,31.89
2023-04-23T09:42:54.665Z,32.22
2023-04-23T09:45:58.186Z,34.50
2023-04-23T09:49:07.896Z,32.15
2023-04-23T09:52:13.783Z,31.29
2023-04-23T09:55:28.433Z,32.73
2023-04-23T09:58:31.582Z,29.81
2023-04-23T10:01:34.604Z,28.92
2023-04-23T10:04:38.782Z,31.61
2023-04-23T10:07:43.095Z,27.26
2023-04-23T10:10:59.974Z,29.00
2023-04-23T10:14:06.929Z,30.81
2023-04-23T10:17:10.959Z,30.20
2023-04-23T10:20:16.350Z,28.44
2023-04-23T10:23:22.448Z,30.92
2023-04-23T10:26:26.357Z,30.51
2023-04-23T10:29:34.195Z,28.17
2023-04-23T10:32:38.991Z,26.99
2023-04-23T10:35:42.081Z,25.95
2023-04-23T10:38:56.601Z,26.67
2023-04-23T10:42:02.398Z,27.12
2023-04-23T10:45:23.280Z,26.31
2023-04-23T10:48:28.846Z,28.61
2023-04-23T10:54:44.484Z,26.49
2023-04-23T10:58:01.206Z,27.10
2023-04-23T11:01:06.091Z,27.08
2023-04-23T11:04:31.115Z,26.48
2023-04-23T11:07:34.750Z,28.63
2023-04-23T11:10:54.934Z,26.07
2023-04-23T11:13:59.617Z,27.76
2023-04-23T11:17:06.868Z,26.09
2023-04-23T11:20:16.558Z,28.44
2023-04-23T11:23:37.598Z,28.93
2023-04-23T11:26:44.043Z,30.24
2023-04-23T11:29:48.070Z,27.85
2023-04-23T11:32:54.707Z,30.24
2023-04-23T11:35:58.151Z,30.79
2023-04-23T11:39:04.133Z,27.45
2023-04-23T11:42:14.430Z,27.76
2023-04-23T11:45:19.035Z,27.71
2023-04-23T11:48:22.242Z,26.56
2023-04-23T11:51:27.169Z,27.02
2023-04-23T11:54:30.409Z,28.36
2023-04-23T11:57:37.797Z,26.21
2023-04-23T12:00:41.613Z,28.56
2023-04-23T12:03:49.576Z,26.56
2023-04-23T12:06:54.890Z,27.85
2023-04-23T12:10:00.776Z,26.11
2023-04-23T12:13:04.087Z,28.70
2023-04-23T12:16:08.585Z,27.91
2023-04-23T12:19:15.772Z,28.95
2023-04-23T12:22:28.488Z,29.87
2023-04-23T12:25:32.053Z,30.53
2023-04-23T12:28:35.531Z,29.97
2023-04-23T12:31:39.309Z,29.86
2023-04-23T12:34:55.956Z,27.76
2023-04-23T12:37:58.949Z,28.71
2023-04-23T12:41:02.172Z,29.53
2023-04-23T12:44:05.594Z,28.75
2023-04-23T12:47:11.571Z,27.13
2023-04-23T12:50:14.583Z,28.51
2023-04-23T12:53:18.782Z,28.56
2023-04-23T12:56:21.678Z,28.66
2023-04-23T12:59:24.903Z,28.87
2023-04-23T13:02:28.355Z,29.58
2023-04-23T13:05:31.702Z,31.14
2023-04-23T13:08:34.648Z,30.29
2023-04-23T13:11:39.420Z,31.16
2023-04-23T13:14:42.818Z,30.30
2023-04-23T13:17:46.168Z,29.33
2023-04-23T13:20:50.052Z,33.07
2023-04-23T13:23:53.425Z,32.54
2023-04-23T13:26:57.219Z,30.57
2023-04-23T13:30:00.764Z,30.92
2023-04-23T13:33:04.589Z,30.98
2023-04-23T13:36:08.714Z,29.19
2023-04-23T13:39:14.320Z,32.55
2023-04-23T13:42:17.759Z,32.27
2023-04-23T13:45:21.010Z,33.69
2023-04-23T13:48:28.697Z,33.92
2023-04-23T13:51:35.191Z,36.38
2023-04-23T13:54:39.981Z,36.34
2023-04-23T13:57:42.931Z,37.78
2023-04-23T14:00:46.506Z,37.51
2023-04-23T14:03:49.723Z,36.92
2023-04-23T14:06:53.056Z,34.72
2023-04-23T14:09:56.272Z,34.13
2023-04-23T14:12:59.383Z,34.92
2023-04-23T14:16:03.679Z,36.63
2023-04-23T14:19:06.927Z,38.38
2023-04-23T14:22:10.265Z,37.17
2023-04-23T14:25:23.892Z,36.45
2023-04-23T14:28:40.961Z,33.46
2023-04-23T14:31:43.948Z,35.75
2023-04-23T14:34:47.149Z,34.04
2023-04-23T14:37:50.039Z,34.80
2023-04-23T14:40:53.854Z,34.30
2023-04-23T14:43:57.136Z,38.23
2023-04-23T14:47:00.525Z,38.99
2023-04-23T14:50:04.232Z,36.48
2023-04-23T14:53:10.236Z,35.64
2023-04-23T14:56:13.329Z,37.42
2023-04-23T14:59:16.412Z,38.05
2023-04-23T15:02:19.579Z,37.65
2023-04-23T15:05:22.541Z,38.01
2023-04-23T15:08:25.994Z,39.20
2023-04-23T15:11:29.535Z,39.95
2023-04-23T15:14:37.491Z,40.08
2023-04-23T15:17:40.840Z,38.73
2023-04-23T15:20:44.618Z,39.28
2023-04-23T15:23:48.007Z,38.70
2023-04-23T15:26:53.518Z,38.93
2023-04-23T15:29:57.113Z,41.77
2023-04-23T15:33:00.321Z,40.31
2023-04-23T15:36:04.255Z,42.94
2023-04-23T15:39:08.761Z,46.05
2023-04-23T15:42:14.334Z,43.82
2023-04-23T15:45:17.577Z,42.25
2023-04-23T15:48:21.553Z,42.65
2023-04-23T15:51:24.528Z,44.19
2023-04-23T15:54:27.431Z,42.34
2023-04-23T15:57:31.030Z,43.16
2023-04-23T16:00:34.434Z,45.24
2023-04-23T16:03:38.054Z,45.21
2023-04-23T16:06:41.321Z,44.61
2023-04-23T16:09:44.522Z,42.70
2023-04-23T16:12:48.695Z,44.60
2023-04-23T16:15:51.871Z,46.83
2023-04-23T16:18:56.361Z,46.55
2023-04-23T16:22:00.903Z,44.74
2023-04-23T16:25:05.112Z,42.33
2023-04-23T16:28:08.648Z,42.43
2023-04-23T16:31:12.716Z,40.96
2023-04-23T16:34:16.074Z,39.59
2023-04-23T16:37:19.862Z,39.51
2023-04-23T16:40:23.056Z,38.20
2023-04-23T16:43:26.351Z,40.25
2023-04-23T16:46:31.504Z,41.41
2023-04-23T16:49:35.499Z,44.90
2023-04-23T16:52:38.812Z,44.78
2023-04-23T16:55:42.079Z,42.18
2023-04-23T16:58:45.376Z,48.52
2023-04-23T17:01:48.430Z,46.33
2023-04-23T17:04:51.957Z,46.86
2023-04-23T17:07:55.474Z,45.35
2023-04-23T17:10:58.458Z,47.22
2023-04-23T17:14:01.724Z,46.00
2023-04-23T17:17:04.978Z,47.62
2023-04-23T17:20:09.008Z,47.85
2023-04-23T17:23:12.680Z,47.59
2023-04-23T17:26:15.923Z,49.53
2023-04-23T17:29:19.634Z,51.89
2023-04-23T17:32:23.767Z,53.80
2023-04-23T17:35:27.014Z,55.13
2023-04-23T17:38:30.499Z,56.52
2023-04-23T17:41:34.067Z,56.43
2023-04-23T17:44:41.112Z,57.71
2023-04-23T17:47:44.616Z,59.81
2023-04-23T17:50:47.829Z,59.38
2023-04-23T17:53:53.696Z,59.50
2023-04-23T17:56:56.592Z,59.98
2023-04-23T18:00:02.373Z,61.16
2023-04-23T18:03:17.790Z,61.26
2023-04-23T18:06:22.164Z,61.50
2023-04-23T18:09:25.581Z,62.01
2023-04-23T18:12:30.261Z,61.88
2023-04-23T18:15:33.656Z,61.82
2023-04-23T18:18:37.019Z,62.14
2023-04-23T18:21:40.850Z,61.77
2023-04-23T18:24:44.818Z,61.89
2023-04-23T18:27:48.973Z,60.59
2023-04-23T18:30:52.556Z,62.36
2023-04-23T18:34:02.386Z,60.17
2023-04-23T18:37:11.277Z,58.06
2023-04-23T18:40:14.978Z,58.87
2023-04-23T18:43:18.899Z,57.15
2023-04-23T18:46:23.255Z,56.15
2023-04-23T18:49:29.745Z,55.98
2023-04-23T18:52:33.254Z,55.57
2023-04-23T18:55:37.156Z,57.50
2023-04-23T18:58:40.962Z,56.53
2023-04-23T19:01:46.327Z,56.43
2023-04-23T19:04:49.606Z,57.46
2023-04-23T19:07:54.671Z,56.73
2023-04-23T19:10:57.907Z,57.04
2023-04-23T19:14:01.935Z,56.94
2023-04-23T19:17:05.464Z,52.97
2023-04-23T19:20:11.423Z,54.09
2023-04-23T19:23:14.835Z,55.00
2023-04-23T19:26:19.094Z,55.25
2023-04-23T19:29:23.352Z,56.66
2023-04-23T19:32:30.134Z,51.95
2023-04-23T19:35:33.929Z,51.35
2023-04-23T19:38:37.802Z,52.97
2023-04-23T19:41:41.440Z,49.69
2023-04-23T19:44:44.706Z,50.21
2023-04-23T19:47:48.169Z,51.35
2023-04-23T19:50:51.320Z,51.51
2023-04-23T19:53:56.042Z,50.93
2023-04-23T19:56:59.464Z,47.81
2023-04-23T20:00:05.106Z,49.94
2023-04-23T20:03:10.095Z,46.04
2023-04-23T20:06:16.500Z,45.30
2023-04-23T20:09:21.189Z,44.05
2023-04-23T20:12:25.444Z,45.80
2023-04-23T20:15:29.206Z,47.29
2023-04-23T20:18:35.592Z,47.99
2023-04-23T20:21:39.810Z,49.97
2023-04-23T20:24:46.408Z,47.97
2023-04-23T20:27:51.119Z,47.84
2023-04-23T20:30:54.334Z,49.14
2023-04-23T20:33:58.043Z,48.17
2023-04-23T20:37:01.327Z,49.38
2023-04-23T20:40:05.690Z,48.07
2023-04-23T20:43:10.042Z,47.71
2023-04-23T20:46:13.200Z,48.86
2023-04-23T20:49:16.905Z,51.26
2023-04-23T20:52:20.118Z,50.10
2023-04-23T20:55:23.336Z,51.15
2023-04-23T20:58:26.734Z,51.90
2023-04-23T21:01:30.645Z,52.22
2023-04-23T21:04:33.799Z,52.32
2023-04-23T21:07:50.926Z,51.57
2023-04-23T21:10:54.099Z,51.73
2023-04-23T21:14:00.201Z,51.54
2023-04-23T21:17:04.177Z,51.78
2023-04-23T21:20:08.717Z,51.52
2023-04-23T21:23:12.627Z,53.09
2023-04-23T21:26:15.801Z,52.28
2023-04-23T21:29:18.886Z,53.42
2023-04-23T21:32:22.152Z,52.66
2023-04-23T21:35:25.167Z,52.25
2023-04-23T21:38:28.537Z,52.45
2023-04-23T21:41:34.284Z,53.64
2023-04-23T21:44:37.551Z,55.35
2023-04-23T21:47:41.718Z,53.53
2023-04-23T21:50:46.151Z,54.57
2023-04-23T21:53:49.550Z,54.27
2023-04-23T21:56:52.485Z,54.94
2023-04-23T21:59:55.674Z,54.53
2023-04-23T22:02:58.927Z,55.54
2023-04-23T22:06:03.350Z,54.42
2023-04-23T22:09:06.434Z,52.62
2023-04-23T22:12:10.024Z,52.53
2023-04-23T22:15:15.433Z,54.94
2023-04-23T22:18:18.545Z,57.39
2023-04-23T22:21:21.853Z,56.71
2023-04-23T22:24:24.725Z,56.51
2023-04-23T22:27:28.481Z,55.27
2023-04-23T22:30:31.772Z,60.66
2023-04-23T22:33:35.217Z,63.56
2023-04-23T22:36:40.720Z,57.54
2023-04-23T22:39:43.970Z,62.13
2023-04-23T22:42:47.689Z,56.92
2023-04-23T22:45:51.074Z,57.98
2023-04-23T22:48:54.905Z,57.33
2023-04-23T22:51:58.085Z,59.22
2023-04-23T22:55:01.426Z,58.88
2023-04-23T22:58:04.952Z,65.95
2023-04-23T23:01:08.359Z,68.84
2023-04-23T23:04:13.195Z,63.05
2023-04-23T23:07:16.317Z,63.85
2023-04-23T23:10:22.746Z,68.75
2023-04-23T23:13:26.157Z,69.09
2023-04-23T23:16:30.664Z,67.40
2023-04-23T23:19:33.856Z,68.03
2023-04-23T23:22:37.675Z,70.97
2023-04-23T23:25:41.242Z,71.46
2023-04-23T23:28:45.465Z,72.46
2023-04-23T23:31:48.551Z,69.95
2023-04-23T23:34:52.007Z,72.11
2023-04-23T23:37:55.137Z,74.40
2023-04-23T23:40:58.174Z,74.52
2023-04-23T23:44:01.205Z,73.93
2023-04-23T23:47:04.313Z,71.15
2023-04-23T23:50:08.306Z,71.36
2023-04-23T23:53:11.676Z,69.94
2023-04-23T23:56:15.287Z,71.73
2023-04-23T23:59:18.649Z,73.49
